Terminal Aerodrome Forecast
Issued by NWS Blacksburg, VA

Current Version | Previous Version | Text Only | Print | Product List | Glossary Off
Versions: 1 2 3 4 5 6 7 8 9 10 11 12 13 14 15 16 17 18 19 20 21 22 23 24 25 26 27 28 29 30 31 32 33 34 35 36 37 38 39 40 41 42 43 44 45 46 47 48 49 50

000
FTUS41 KRNK 191140
TAFBLF
TAF
KBLF 191140Z 1912/2012 12009G21KT P6SM -RA OVC025
     FM191600 12009G19KT 5SM -RA BR OVC018
     FM192100 13012G22KT 3SM -RA BR OVC012
     FM200400 19010KT P6SM OVC009
     FM200800 23008KT P6SM OVC005=

USA.gov is the U.S. government's official web portal to all federal, state and local government web resources and services.